Terminal Aerodrome Forecast
Issued by NWS Milwaukee/Sullivan, WI

Home | Current Version | Previous Version | Text Only | Print | Product List | Glossary On
Versions: 1 2 3 4 5 6 7 8 9 10 11 12 13 14 15 16 17 18 19 20 21 22 23 24 25 26 27 28 29 30 31 32 33 34 35 36 37 38 39 40 41 42 43 44 45 46 47
000
FTUS43 KMKX 020902 AAB
TAFMSN
TAF AMD
KMSN 020902Z 0209/0306 VRB03KT P6SM SCT015 BKN025
     FM021600 15006KT 6SM BR SCT025 BKN040
     FM021800 16006KT P6SM VCTS SCT020 BKN040CB
     FM022200 17006KT 4SM -TSRA BR SCT006 OVC020CB
     FM030100 20004KT 1SM -SHRA BR VCTS OVC005CB
     FM030300 23006KT 3/4SM -SHRA BR OVC004=

USA.gov is the U.S. government's official web portal to all federal, state and local government web resources and services.